Time;durP1;ratioP1;P1;durP2;ratioP2;P2;SDS_P1;SDS_P2;PMS_P1;PMS_P2;Temp;Humidity;BMP_temperature;BMP_pressure;BME280_temperature;BME280_humidity;BME280_pressure;Samples;Min_cycle;Max_cycle;Signal;HPM_P1;HPM_P2
2022/01/13 00:00:06;;;;;;;;;;;5.90;99.90;;;;;;5147036;27;19922;-67
2022/01/13 00:02:35;;;;;;;;;;;5.80;99.90;;;;;;5171449;27;19927;-67
2022/01/13 00:05:00;;;;;;;;;;;5.80;99.90;;;;;;5171567;27;20318;-67
2022/01/13 00:07:26;;;;;;;;;;;5.80;99.90;;;;;;5173606;27;19926;-65
2022/01/13 00:09:51;;;;;;;;;;;5.80;99.90;;;;;;5147023;27;19929;-65
2022/01/13 00:12:19;;;;;;;;;;;5.80;99.90;;;;;;5151333;27;19922;-65
2022/01/13 00:17:32;;;;;;;;;;;5.70;99.90;;;;;;5173245;27;20410;-65
2022/01/13 00:25:03;;;;;;;;;;;5.70;99.90;;;;;;5156620;27;20372;-64
2022/01/13 00:27:30;;;;;;;;;;;5.70;99.90;;;;;;5172943;27;19927;-65
2022/01/13 00:29:58;;;;;;;;;;;5.80;99.90;;;;;;5171932;27;19923;-65
2022/01/13 00:32:28;;;;;;;;;;;5.70;99.90;;;;;;5172726;27;19948;-65
2022/01/13 00:34:53;;;;;;;;;;;5.60;99.90;;;;;;5172785;27;19927;-66
2022/01/13 00:37:19;;;;;;;;;;;5.70;99.90;;;;;;5153412;27;20394;-65
2022/01/13 00:39:44;;;;;;;;;;;5.70;99.90;;;;;;5151955;27;20033;-65
2022/01/13 00:42:10;;;;;;;;;;;5.70;99.90;;;;;;5166753;27;20398;-65
2022/01/13 00:44:37;;;;;;;;;;;5.60;99.90;;;;;;5172628;27;19923;-69
2022/01/13 00:47:05;;;;;;;;;;;5.60;99.90;;;;;;5161481;27;19923;-65
2022/01/13 00:49:31;;;;;;;;;;;5.60;99.90;;;;;;5152667;27;19935;-65
2022/01/13 00:51:56;;;;;;;;;;;5.50;99.90;;;;;;5154130;27;19991;-65
2022/01/13 00:54:22;;;;;;;;;;;5.60;99.90;;;;;;5172328;27;20003;-66
2022/01/13 00:56:48;;;;;;;;;;;5.60;99.90;;;;;;5171847;27;19933;-65
2022/01/13 00:59:14;;;;;;;;;;;5.50;99.90;;;;;;5173200;27;19926;-65
2022/01/13 01:01:41;;;;;;;;;;;5.50;99.90;;;;;;5169625;27;19923;-65
2022/01/13 01:04:07;;;;;;;;;;;5.50;99.90;;;;;;5134653;27;19923;-65
2022/01/13 01:06:33;;;;;;;;;;;5.40;99.90;;;;;;5156563;27;19927;-65
2022/01/13 01:08:59;;;;;;;;;;;5.40;99.90;;;;;;5137896;27;20382;-65
2022/01/13 01:11:26;;;;;;;;;;;5.40;99.90;;;;;;5156442;27;19923;-64
2022/01/13 01:13:52;;;;;;;;;;;5.40;99.90;;;;;;5153900;27;19945;-65
2022/01/13 01:16:18;;;;;;;;;;;5.40;99.90;;;;;;5177171;27;19931;-65
2022/01/13 01:29:08;;;;;;;;;;;5.40;99.90;;;;;;5168051;27;19968;-65
2022/01/13 01:31:36;;;;;;;;;;;5.40;99.90;;;;;;5176867;27;19927;-65
2022/01/13 01:36:47;;;;;;;;;;;5.40;99.90;;;;;;5155503;27;19934;-65
2022/01/13 01:39:13;;;;;;;;;;;5.40;99.90;;;;;;5146283;27;19978;-65
2022/01/13 01:41:40;;;;;;;;;;;5.50;99.90;;;;;;5171526;27;20017;-65
2022/01/13 01:44:17;;;;;;;;;;;5.40;99.90;;;;;;5167200;27;19927;-64
2022/01/13 01:46:45;;;;;;;;;;;5.30;99.90;;;;;;5176547;27;20017;-65
2022/01/13 01:49:21;;;;;;;;;;;5.30;99.90;;;;;;5176467;27;19987;-65
2022/01/13 01:51:54;;;;;;;;;;;5.40;99.90;;;;;;5172818;27;20644;-65
2022/01/13 01:54:20;;;;;;;;;;;5.40;99.90;;;;;;5164069;27;19927;-65
2022/01/13 01:56:46;;;;;;;;;;;5.40;99.90;;;;;;5157854;27;19922;-69
2022/01/13 01:59:15;;;;;;;;;;;5.40;99.90;;;;;;5176295;27;19937;-65
2022/01/13 02:01:42;;;;;;;;;;;5.40;99.90;;;;;;5167386;27;20273;-65
2022/01/13 02:04:07;;;;;;;;;;;5.40;99.90;;;;;;5155795;27;20504;-66
2022/01/13 02:06:35;;;;;;;;;;;5.40;99.90;;;;;;5155229;27;19974;-64
2022/01/13 02:09:01;;;;;;;;;;;5.40;99.90;;;;;;5154977;27;20269;-66
2022/01/13 02:11:27;;;;;;;;;;;5.30;99.90;;;;;;5144621;27;19947;-66
2022/01/13 02:13:55;;;;;;;;;;;5.40;99.90;;;;;;5156129;27;19949;-65
2022/01/13 02:18:59;;;;;;;;;;;5.40;99.90;;;;;;5154881;27;20291;-66
2022/01/13 02:21:26;;;;;;;;;;;5.40;99.90;;;;;;5174548;27;19949;-65
2022/01/13 02:23:52;;;;;;;;;;;5.40;99.90;;;;;;5156666;27;19927;-66
2022/01/13 02:26:18;;;;;;;;;;;5.30;99.90;;;;;;5152788;27;20348;-65
2022/01/13 02:28:44;;;;;;;;;;;5.40;99.90;;;;;;5157423;27;19930;-65
2022/01/13 02:31:11;;;;;;;;;;;5.40;99.90;;;;;;5173648;27;20252;-65
2022/01/13 02:33:37;;;;;;;;;;;5.40;99.90;;;;;;5175666;27;20009;-65
2022/01/13 02:36:03;;;;;;;;;;;5.40;99.90;;;;;;5130602;27;20056;-66
2022/01/13 02:38:29;;;;;;;;;;;5.40;99.90;;;;;;5154650;27;19923;-64
2022/01/13 02:40:56;;;;;;;;;;;5.40;99.90;;;;;;5154242;27;19927;-65
2022/01/13 02:43:22;;;;;;;;;;;5.40;99.90;;;;;;5155208;27;20323;-65
2022/01/13 02:46:04;;;;;;;;;;;5.40;99.90;;;;;;5157679;27;19928;-64
2022/01/13 02:48:30;;;;;;;;;;;5.40;99.90;;;;;;5154616;27;20321;-65
2022/01/13 02:50:56;;;;;;;;;;;5.40;99.90;;;;;;5153811;27;19934;-65
2022/01/13 02:53:23;;;;;;;;;;;5.50;99.90;;;;;;5155034;27;19923;-65
2022/01/13 02:55:49;;;;;;;;;;;5.40;99.90;;;;;;5144016;27;20017;-65
2022/01/13 02:58:15;;;;;;;;;;;5.40;99.90;;;;;;5155372;27;19935;-65
2022/01/13 03:00:41;;;;;;;;;;;5.40;99.90;;;;;;5136052;27;19931;-65
2022/01/13 03:03:07;;;;;;;;;;;5.50;99.90;;;;;;5159438;27;19981;-65
2022/01/13 03:05:37;;;;;;;;;;;5.50;99.90;;;;;;5175076;27;19969;-65
2022/01/13 03:08:03;;;;;;;;;;;5.50;99.90;;;;;;5134383;27;20452;-65
2022/01/13 03:10:29;;;;;;;;;;;5.50;99.90;;;;;;5135578;27;19926;-64
2022/01/13 03:12:56;;;;;;;;;;;5.50;99.90;;;;;;5162310;27;20331;-65
2022/01/13 03:15:22;;;;;;;;;;;5.50;99.90;;;;;;5153962;27;19923;-65
2022/01/13 03:17:47;;;;;;;;;;;5.50;99.90;;;;;;5155216;27;19987;-65
2022/01/13 03:20:13;;;;;;;;;;;5.50;99.90;;;;;;5138589;27;19930;-65
2022/01/13 03:22:39;;;;;;;;;;;5.50;99.90;;;;;;5170093;27;20439;-65
2022/01/13 03:25:05;;;;;;;;;;;5.50;99.90;;;;;;5167855;27;19945;-65
2022/01/13 03:27:34;;;;;;;;;;;5.60;99.90;;;;;;5173003;27;19927;-65
2022/01/13 03:30:06;;;;;;;;;;;5.60;99.90;;;;;;5173344;27;19927;-68
2022/01/13 03:32:41;;;;;;;;;;;5.60;99.90;;;;;;5146988;27;20064;-65
2022/01/13 03:35:07;;;;;;;;;;;5.60;99.90;;;;;;5134883;27;20404;-65
2022/01/13 03:37:32;;;;;;;;;;;5.60;99.90;;;;;;5153505;27;20222;-65
2022/01/13 03:39:58;;;;;;;;;;;5.60;99.90;;;;;;5167034;27;19991;-65
2022/01/13 03:42:24;;;;;;;;;;;5.60;99.90;;;;;;5172857;27;19922;-65
2022/01/13 03:44:49;;;;;;;;;;;5.60;99.90;;;;;;5173090;27;19930;-65
2022/01/13 03:47:15;;;;;;;;;;;5.60;99.90;;;;;;5173817;27;20354;-66
2022/01/13 03:49:41;;;;;;;;;;;5.60;99.90;;;;;;5171844;27;19926;-65
2022/01/13 03:52:13;;;;;;;;;;;5.50;99.90;;;;;;5173659;27;19927;-65
2022/01/13 03:54:39;;;;;;;;;;;5.50;99.90;;;;;;5153555;27;19946;-65
2022/01/13 03:57:23;;;;;;;;;;;5.60;99.90;;;;;;5152751;27;19923;-66
2022/01/13 04:00:07;;;;;;;;;;;5.50;99.90;;;;;;5157124;27;20456;-65
2022/01/13 04:02:34;;;;;;;;;;;5.50;99.90;;;;;;5153258;27;20089;-66
2022/01/13 04:04:59;;;;;;;;;;;5.60;99.90;;;;;;5171414;27;20292;-65
2022/01/13 04:07:25;;;;;;;;;;;5.50;99.90;;;;;;5137351;27;19934;-65
2022/01/13 04:10:03;;;;;;;;;;;5.50;99.90;;;;;;5155182;27;20395;-66
2022/01/13 04:12:29;;;;;;;;;;;5.50;99.90;;;;;;5152553;27;19927;-66
2022/01/13 04:14:58;;;;;;;;;;;5.40;99.90;;;;;;5127820;27;20010;-66
2022/01/13 04:17:24;;;;;;;;;;;5.40;99.90;;;;;;5170071;27;19929;-68
2022/01/13 04:19:50;;;;;;;;;;;5.40;99.90;;;;;;5155367;27;19922;-67
2022/01/13 04:22:16;;;;;;;;;;;5.40;99.90;;;;;;5160966;27;19979;-66
2022/01/13 04:24:49;;;;;;;;;;;5.50;99.90;;;;;;5153944;27;20014;-66
2022/01/13 04:27:21;;;;;;;;;;;5.40;99.90;;;;;;5134018;27;20306;-66
2022/01/13 04:29:49;;;;;;;;;;;5.40;99.90;;;;;;5134246;27;20001;-67
2022/01/13 04:32:14;;;;;;;;;;;5.30;99.90;;;;;;5143379;27;20379;-67
2022/01/13 04:34:40;;;;;;;;;;;5.40;99.90;;;;;;5158115;27;19927;-66
2022/01/13 04:37:06;;;;;;;;;;;5.40;99.90;;;;;;5142612;27;19923;-66
2022/01/13 04:39:32;;;;;;;;;;;5.30;99.90;;;;;;5124068;27;19929;-66
2022/01/13 04:41:58;;;;;;;;;;;5.40;99.90;;;;;;5133943;27;19938;-66
2022/01/13 04:44:24;;;;;;;;;;;5.30;99.90;;;;;;5152909;27;20365;-67
2022/01/13 04:46:51;;;;;;;;;;;5.40;99.90;;;;;;5118699;27;19926;-66
2022/01/13 04:49:18;;;;;;;;;;;5.40;99.90;;;;;;5172574;27;20379;-66
2022/01/13 04:51:45;;;;;;;;;;;5.40;99.90;;;;;;5173106;27;19969;-66
2022/01/13 04:54:11;;;;;;;;;;;5.40;99.90;;;;;;5140824;27;19934;-67
2022/01/13 04:56:53;;;;;;;;;;;5.40;99.90;;;;;;5151947;27;20295;-67
2022/01/13 04:59:18;;;;;;;;;;;5.50;99.90;;;;;;5168793;27;20028;-66
2022/01/13 05:01:44;;;;;;;;;;;5.50;99.90;;;;;;5154838;27;20034;-67
2022/01/13 05:04:09;;;;;;;;;;;5.50;99.90;;;;;;5168225;27;20130;-67
2022/01/13 05:06:35;;;;;;;;;;;5.50;99.90;;;;;;5172755;27;19922;-66
2022/01/13 05:09:01;;;;;;;;;;;5.50;99.90;;;;;;5172041;27;20454;-66
2022/01/13 05:11:27;;;;;;;;;;;5.50;99.90;;;;;;5172525;27;20017;-66
2022/01/13 05:13:53;;;;;;;;;;;5.50;99.90;;;;;;5169872;27;20010;-66
2022/01/13 05:16:23;;;;;;;;;;;5.60;99.90;;;;;;5136821;27;20359;-65
2022/01/13 05:19:12;;;;;;;;;;;5.60;99.90;;;;;;5153196;27;19923;-66
2022/01/13 05:24:22;;;;;;;;;;;5.50;99.90;;;;;;5167104;27;19958;-66
2022/01/13 05:26:47;;;;;;;;;;;5.50;99.90;;;;;;5152166;27;20351;-66
2022/01/13 05:29:18;;;;;;;;;;;5.50;99.90;;;;;;5133719;27;19962;-65
2022/01/13 05:31:43;;;;;;;;;;;5.50;99.90;;;;;;5152212;27;20070;-65
2022/01/13 05:34:09;;;;;;;;;;;5.50;99.90;;;;;;5152479;27;19927;-65
2022/01/13 05:36:35;;;;;;;;;;;5.60;99.90;;;;;;5134351;27;19926;-65
2022/01/13 05:39:00;;;;;;;;;;;5.60;99.90;;;;;;5153671;27;19930;-65
2022/01/13 05:41:26;;;;;;;;;;;5.60;99.90;;;;;;5151627;27;19927;-66
2022/01/13 05:43:52;;;;;;;;;;;5.60;99.90;;;;;;5140289;27;20058;-65
2022/01/13 05:46:17;;;;;;;;;;;5.50;99.90;;;;;;5112082;28;19924;-66
2022/01/13 05:48:43;;;;;;;;;;;5.60;99.90;;;;;;5109286;28;20383;-65
2022/01/13 05:51:08;;;;;;;;;;;5.60;99.90;;;;;;5113777;28;19924;-66
2022/01/13 05:53:34;;;;;;;;;;;5.50;99.90;;;;;;5114082;28;19928;-65
2022/01/13 05:55:59;;;;;;;;;;;5.60;99.90;;;;;;5125518;27;20596;-65
2022/01/13 05:58:25;;;;;;;;;;;5.60;99.90;;;;;;5114210;28;19928;-65
2022/01/13 06:00:51;;;;;;;;;;;5.60;99.90;;;;;;5122826;27;19924;-65
2022/01/13 06:03:16;;;;;;;;;;;5.60;99.90;;;;;;5103662;28;19924;-65
2022/01/13 06:05:42;;;;;;;;;;;5.60;99.90;;;;;;5123890;27;20308;-66
2022/01/13 06:08:08;;;;;;;;;;;5.60;99.90;;;;;;5133860;27;20014;-65
2022/01/13 06:10:33;;;;;;;;;;;5.60;99.90;;;;;;5115027;27;20360;-65
2022/01/13 06:12:59;;;;;;;;;;;5.60;99.90;;;;;;5134644;27;19927;-65
2022/01/13 06:15:25;;;;;;;;;;;5.60;99.90;;;;;;5120136;27;20366;-65
2022/01/13 06:17:52;;;;;;;;;;;5.60;99.90;;;;;;5113728;28;19946;-65
2022/01/13 06:20:18;;;;;;;;;;;5.70;99.90;;;;;;5114025;28;19928;-66
2022/01/13 06:22:44;;;;;;;;;;;5.70;99.90;;;;;;5113857;27;19927;-67
2022/01/13 06:25:10;;;;;;;;;;;5.70;99.90;;;;;;5120017;27;19924;-66
2022/01/13 06:27:36;;;;;;;;;;;5.70;99.90;;;;;;5120561;27;19928;-66
2022/01/13 06:30:02;;;;;;;;;;;5.70;99.90;;;;;;5113845;28;19935;-68
2022/01/13 06:32:28;;;;;;;;;;;5.80;99.90;;;;;;5122168;27;19923;-67
2022/01/13 06:34:53;;;;;;;;;;;5.90;99.90;;;;;;5125570;27;19931;-66
2022/01/13 06:37:19;;;;;;;;;;;5.80;99.90;;;;;;5114852;27;19934;-67
2022/01/13 06:39:45;;;;;;;;;;;5.80;99.90;;;;;;5111640;28;20388;-67
2022/01/13 06:42:11;;;;;;;;;;;5.90;99.90;;;;;;5113885;27;19950;-65
2022/01/13 06:44:37;;;;;;;;;;;5.80;99.90;;;;;;5113703;27;19935;-64
2022/01/13 06:47:03;;;;;;;;;;;5.90;99.90;;;;;;5116307;27;19931;-65
2022/01/13 06:49:29;;;;;;;;;;;5.90;99.90;;;;;;5113290;28;19982;-71
2022/01/13 06:51:54;;;;;;;;;;;5.90;99.90;;;;;;5113393;28;19963;-67
2022/01/13 06:54:20;;;;;;;;;;;5.90;99.90;;;;;;5114421;27;19928;-66
2022/01/13 06:56:46;;;;;;;;;;;5.80;99.90;;;;;;5114433;27;19969;-66
2022/01/13 06:59:13;;;;;;;;;;;5.90;99.90;;;;;;5112066;28;20226;-65
2022/01/13 07:01:39;;;;;;;;;;;5.90;99.90;;;;;;5112315;28;20028;-67
2022/01/13 07:04:08;;;;;;;;;;;5.90;99.90;;;;;;5113217;27;19934;-66
2022/01/13 07:06:34;;;;;;;;;;;5.90;99.90;;;;;;5101478;28;19928;-67
2022/01/13 07:08:59;;;;;;;;;;;5.90;99.90;;;;;;5116187;27;19938;-67
2022/01/13 07:11:25;;;;;;;;;;;5.90;99.90;;;;;;5106370;27;19923;-66
2022/01/13 07:13:51;;;;;;;;;;;6.00;99.90;;;;;;5115737;27;20631;-64
2022/01/13 07:16:16;;;;;;;;;;;6.00;99.90;;;;;;5115404;27;19927;-64
2022/01/13 07:18:42;;;;;;;;;;;5.90;99.90;;;;;;5120120;27;19967;-64
2022/01/13 07:21:09;;;;;;;;;;;6.00;99.90;;;;;;5112622;28;19927;-65
2022/01/13 07:23:35;;;;;;;;;;;6.00;99.90;;;;;;5112340;28;19924;-64
2022/01/13 07:26:02;;;;;;;;;;;6.00;99.90;;;;;;5114333;27;20048;-67
2022/01/13 07:28:30;;;;;;;;;;;6.00;99.90;;;;;;5128772;27;19927;-64
2022/01/13 07:30:57;;;;;;;;;;;6.00;99.90;;;;;;5112158;28;20411;-67
2022/01/13 07:33:22;;;;;;;;;;;6.00;99.90;;;;;;5112513;28;19928;-66
2022/01/13 07:35:48;;;;;;;;;;;6.00;99.90;;;;;;5111864;28;19927;-67
2022/01/13 07:38:14;;;;;;;;;;;6.00;99.90;;;;;;5113506;27;20274;-67
2022/01/13 07:40:39;;;;;;;;;;;6.10;99.90;;;;;;5113914;27;19923;-67
2022/01/13 07:43:05;;;;;;;;;;;6.10;99.90;;;;;;5118936;27;19923;-67
2022/01/13 07:45:31;;;;;;;;;;;6.10;99.90;;;;;;5154059;27;19927;-66
2022/01/13 07:47:56;;;;;;;;;;;6.10;99.90;;;;;;5162147;27;19931;-66
2022/01/13 07:50:22;;;;;;;;;;;6.10;99.90;;;;;;5161718;27;19931;-69
2022/01/13 07:52:51;;;;;;;;;;;6.10;99.90;;;;;;5158683;27;20256;-66
2022/01/13 07:55:17;;;;;;;;;;;6.10;99.90;;;;;;5164062;27;19929;-66
2022/01/13 07:57:42;;;;;;;;;;;6.10;99.90;;;;;;5150228;27;20017;-66
2022/01/13 08:00:10;;;;;;;;;;;6.10;99.90;;;;;;5166206;27;19931;-65
2022/01/13 08:02:35;;;;;;;;;;;6.10;99.90;;;;;;5156039;27;19967;-65
2022/01/13 08:05:01;;;;;;;;;;;6.10;99.90;;;;;;5135103;27;19973;-66
2022/01/13 08:07:27;;;;;;;;;;;6.10;99.90;;;;;;5154586;27;20023;-66
2022/01/13 08:09:52;;;;;;;;;;;6.10;99.90;;;;;;5153836;27;19949;-66
2022/01/13 08:12:18;;;;;;;;;;;6.20;99.90;;;;;;5139781;27;19930;-65
2022/01/13 08:14:44;;;;;;;;;;;6.20;99.90;;;;;;5166567;27;20401;-67
2022/01/13 08:17:19;;;;;;;;;;;6.20;99.90;;;;;;5148283;27;19968;-67
2022/01/13 08:19:48;;;;;;;;;;;6.20;99.90;;;;;;5171202;27;20356;-67
2022/01/13 08:22:14;;;;;;;;;;;6.20;99.90;;;;;;5143982;27;19923;-67
2022/01/13 08:24:40;;;;;;;;;;;6.20;99.90;;;;;;5167186;27;19976;-65
2022/01/13 08:27:06;;;;;;;;;;;6.20;99.90;;;;;;5153490;27;19974;-67
2022/01/13 08:29:32;;;;;;;;;;;6.20;99.90;;;;;;5131910;27;19926;-67
2022/01/13 08:31:57;;;;;;;;;;;6.20;99.90;;;;;;5126560;27;20001;-68
2022/01/13 08:34:23;;;;;;;;;;;6.20;99.90;;;;;;5117100;27;19966;-68
2022/01/13 08:36:49;;;;;;;;;;;6.20;99.90;;;;;;5134028;27;20415;-67
2022/01/13 08:39:15;;;;;;;;;;;6.20;99.90;;;;;;5134230;27;19934;-66
2022/01/13 08:41:41;;;;;;;;;;;6.20;99.90;;;;;;5135182;27;19923;-67
2022/01/13 08:44:07;;;;;;;;;;;6.20;99.90;;;;;;5138920;27;19927;-66
2022/01/13 08:46:33;;;;;;;;;;;6.20;99.90;;;;;;5143412;27;19933;-67
2022/01/13 08:48:59;;;;;;;;;;;6.20;99.90;;;;;;5116726;27;19927;-67
2022/01/13 08:51:24;;;;;;;;;;;6.20;99.90;;;;;;5152554;27;19926;-67
2022/01/13 08:53:50;;;;;;;;;;;6.20;99.90;;;;;;5139693;27;20013;-66
2022/01/13 08:56:15;;;;;;;;;;;6.20;99.90;;;;;;5173510;27;20227;-67
2022/01/13 08:58:42;;;;;;;;;;;6.20;99.90;;;;;;5140615;27;19927;-68
2022/01/13 09:01:08;;;;;;;;;;;6.20;99.90;;;;;;5132895;27;20387;-68
2022/01/13 09:03:37;;;;;;;;;;;6.20;99.90;;;;;;5152051;27;19927;-68
2022/01/13 09:06:03;;;;;;;;;;;6.20;99.90;;;;;;5141854;27;19923;-65
2022/01/13 09:08:29;;;;;;;;;;;6.20;99.90;;;;;;5119248;27;19927;-68
2022/01/13 09:10:55;;;;;;;;;;;6.20;99.90;;;;;;5152275;27;19923;-67
2022/01/13 09:13:20;;;;;;;;;;;6.30;99.90;;;;;;5152579;27;19938;-67
2022/01/13 09:15:57;;;;;;;;;;;6.30;99.90;;;;;;5147038;27;19922;-67
2022/01/13 09:18:33;;;;;;;;;;;6.40;99.90;;;;;;5145911;27;19989;-67
2022/01/13 09:20:58;;;;;;;;;;;6.20;99.90;;;;;;5152127;27;19927;-66
2022/01/13 09:23:24;;;;;;;;;;;6.30;99.90;;;;;;5152382;27;20022;-66
2022/01/13 09:25:50;;;;;;;;;;;6.30;99.90;;;;;;5143617;27;19930;-65
2022/01/13 09:28:15;;;;;;;;;;;6.30;99.90;;;;;;5154705;27;19931;-66
2022/01/13 09:30:41;;;;;;;;;;;6.20;99.90;;;;;;5159290;27;20391;-66
2022/01/13 09:33:08;;;;;;;;;;;6.20;99.90;;;;;;5141201;27;20402;-67
2022/01/13 09:35:34;;;;;;;;;;;6.30;99.90;;;;;;5143861;27;19930;-67
2022/01/13 09:38:00;;;;;;;;;;;6.30;99.90;;;;;;5136180;27;20415;-67
2022/01/13 09:40:26;;;;;;;;;;;6.30;99.90;;;;;;5155744;27;19930;-66
2022/01/13 09:42:52;;;;;;;;;;;6.40;99.90;;;;;;5129891;27;19927;-66
2022/01/13 09:45:17;;;;;;;;;;;6.40;99.90;;;;;;5136676;27;19961;-67
2022/01/13 09:47:44;;;;;;;;;;;6.30;99.90;;;;;;5155924;27;19919;-67
2022/01/13 09:50:11;;;;;;;;;;;6.40;99.90;;;;;;5136979;27;19927;-65
2022/01/13 09:52:37;;;;;;;;;;;6.40;99.90;;;;;;5122624;27;19927;-69
2022/01/13 09:55:04;;;;;;;;;;;6.30;99.90;;;;;;5142634;27;19927;-66
2022/01/13 09:57:29;;;;;;;;;;;6.30;99.90;;;;;;5155774;27;20467;-68
2022/01/13 09:59:58;;;;;;;;;;;6.30;99.90;;;;;;5154526;27;20078;-68
2022/01/13 10:02:29;;;;;;;;;;;6.30;99.90;;;;;;5125774;27;19919;-67
2022/01/13 10:04:56;;;;;;;;;;;6.30;99.90;;;;;;5156194;27;19966;-68
2022/01/13 10:07:48;;;;;;;;;;;6.40;99.90;;;;;;5157208;27;20046;-67
2022/01/13 10:10:15;;;;;;;;;;;6.30;99.90;;;;;;5154503;27;19927;-67
2022/01/13 10:12:46;;;;;;;;;;;6.40;99.90;;;;;;5176220;27;19927;-66
2022/01/13 10:17:57;;;;;;;;;;;6.30;99.90;;;;;;5176259;27;19927;-67
2022/01/13 10:20:22;;;;;;;;;;;6.30;99.90;;;;;;5147882;27;19931;-68
2022/01/13 10:22:49;;;;;;;;;;;6.40;99.90;;;;;;5141722;27;19971;-67
2022/01/13 10:25:47;;;;;;;;;;;6.40;99.90;;;;;;5156402;27;19986;-67
2022/01/13 10:28:23;;;;;;;;;;;6.40;99.90;;;;;;5104574;27;19963;-67
2022/01/13 10:30:53;;;;;;;;;;;6.40;99.90;;;;;;5137025;27;19923;-67
2022/01/13 10:33:23;;;;;;;;;;;6.40;99.90;;;;;;5155066;27;19923;-66
2022/01/13 10:35:51;;;;;;;;;;;6.40;99.90;;;;;;5160558;27;20026;-66
2022/01/13 10:38:17;;;;;;;;;;;6.50;99.90;;;;;;5161008;27;19930;-66
2022/01/13 10:40:47;;;;;;;;;;;6.50;99.90;;;;;;5156870;27;19927;-68
2022/01/13 10:43:15;;;;;;;;;;;6.50;99.90;;;;;;5157535;27;19934;-68
2022/01/13 10:45:54;;;;;;;;;;;6.50;99.90;;;;;;5138001;27;19923;-64
2022/01/13 10:48:22;;;;;;;;;;;6.50;99.90;;;;;;5173741;27;19927;-68
2022/01/13 10:50:48;;;;;;;;;;;6.50;99.90;;;;;;5166487;27;20010;-67
2022/01/13 10:53:16;;;;;;;;;;;6.50;99.90;;;;;;5154337;27;20014;-67
2022/01/13 10:55:43;;;;;;;;;;;6.50;99.90;;;;;;5154588;27;19927;-65
2022/01/13 10:58:10;;;;;;;;;;;6.50;99.90;;;;;;5127434;27;19978;-68
2022/01/13 11:00:36;;;;;;;;;;;6.60;99.90;;;;;;5169914;27;19919;-66
2022/01/13 11:03:02;;;;;;;;;;;6.50;99.90;;;;;;5156411;27;20379;-66
2022/01/13 11:05:29;;;;;;;;;;;6.60;99.90;;;;;;5165287;27;20022;-66
2022/01/13 11:07:56;;;;;;;;;;;6.60;99.90;;;;;;5143874;27;19923;-66
2022/01/13 11:10:22;;;;;;;;;;;6.60;99.90;;;;;;5124986;27;19971;-67
2022/01/13 11:12:55;;;;;;;;;;;6.60;99.90;;;;;;5154178;27;19981;-68
2022/01/13 11:15:21;;;;;;;;;;;6.60;99.90;;;;;;5157676;27;20048;-66
2022/01/13 11:17:48;;;;;;;;;;;6.60;99.90;;;;;;5158792;27;20006;-67
2022/01/13 11:20:17;;;;;;;;;;;6.70;99.90;;;;;;5147770;27;19927;-67
2022/01/13 11:22:43;;;;;;;;;;;6.60;99.90;;;;;;5164250;27;19927;-68
2022/01/13 11:25:11;;;;;;;;;;;6.70;99.90;;;;;;5136918;27;20368;-68
2022/01/13 11:27:37;;;;;;;;;;;6.70;99.90;;;;;;5154011;27;19946;-67
2022/01/13 11:30:04;;;;;;;;;;;6.70;99.90;;;;;;5171100;27;20411;-67
2022/01/13 11:32:30;;;;;;;;;;;6.70;99.90;;;;;;5156141;27;19927;-67
2022/01/13 11:34:58;;;;;;;;;;;6.70;99.90;;;;;;5173546;27;19938;-68
2022/01/13 11:37:30;;;;;;;;;;;6.70;99.90;;;;;;5143928;27;20389;-68
2022/01/13 11:39:56;;;;;;;;;;;6.70;99.90;;;;;;5146897;27;20448;-67
2022/01/13 11:42:22;;;;;;;;;;;6.80;99.90;;;;;;5136830;27;19923;-67
2022/01/13 11:45:07;;;;;;;;;;;6.80;99.90;;;;;;5135422;27;19927;-66
2022/01/13 11:47:32;;;;;;;;;;;6.80;99.90;;;;;;5152624;27;19933;-67
2022/01/13 11:50:09;;;;;;;;;;;6.80;99.90;;;;;;5142615;27;19931;-66
2022/01/13 11:52:44;;;;;;;;;;;6.80;99.90;;;;;;5133663;27;20486;-66
2022/01/13 11:55:23;;;;;;;;;;;6.80;99.90;;;;;;5155651;27;19931;-66
2022/01/13 11:57:49;;;;;;;;;;;6.80;99.90;;;;;;5135422;27;19927;-66
2022/01/13 12:00:26;;;;;;;;;;;6.80;99.90;;;;;;5158305;27;19949;-67
2022/01/13 12:02:52;;;;;;;;;;;6.90;99.90;;;;;;5154459;27;20306;-65
2022/01/13 12:05:22;;;;;;;;;;;6.90;99.90;;;;;;5138852;27;19923;-65
2022/01/13 12:07:50;;;;;;;;;;;6.80;99.90;;;;;;5153241;27;20354;-69
2022/01/13 12:10:24;;;;;;;;;;;6.80;99.90;;;;;;5135082;27;20419;-69
2022/01/13 12:12:54;;;;;;;;;;;6.90;99.90;;;;;;5135997;27;20033;-70
2022/01/13 12:15:27;;;;;;;;;;;6.90;99.90;;;;;;5135767;27;19923;-69
2022/01/13 12:17:56;;;;;;;;;;;6.90;99.90;;;;;;5117658;27;20406;-70
2022/01/13 12:20:47;;;;;;;;;;;6.90;99.90;;;;;;5157865;27;19927;-70
2022/01/13 12:23:32;;;;;;;;;;;6.90;99.90;;;;;;5153672;27;20240;-69
2022/01/13 12:25:59;;;;;;;;;;;6.90;99.90;;;;;;5141466;27;20014;-69
2022/01/13 12:28:26;;;;;;;;;;;6.90;99.90;;;;;;5117490;27;19927;-69
2022/01/13 12:30:52;;;;;;;;;;;6.90;99.90;;;;;;5117817;27;19930;-70
2022/01/13 12:33:31;;;;;;;;;;;7.00;99.90;;;;;;5145172;27;19927;-71
2022/01/13 12:35:57;;;;;;;;;;;7.00;99.90;;;;;;5138825;27;19923;-70
2022/01/13 12:38:23;;;;;;;;;;;7.00;99.90;;;;;;5140244;27;19919;-70
2022/01/13 12:40:56;;;;;;;;;;;7.00;99.90;;;;;;5155470;27;19927;-69
2022/01/13 12:46:12;;;;;;;;;;;7.10;99.90;;;;;;5159100;27;20375;-70
2022/01/13 12:48:38;;;;;;;;;;;7.10;99.90;;;;;;5134207;27;19975;-69
2022/01/13 12:51:04;;;;;;;;;;;7.20;99.90;;;;;;5134606;27;19977;-68
2022/01/13 12:53:32;;;;;;;;;;;7.20;99.90;;;;;;5157037;27;19987;-68
2022/01/13 12:56:09;;;;;;;;;;;7.20;99.90;;;;;;5173596;27;20017;-69
2022/01/13 12:58:37;;;;;;;;;;;7.20;99.90;;;;;;5153754;27;19930;-72
2022/01/13 13:01:08;;;;;;;;;;;7.30;99.90;;;;;;5147496;27;19923;-70
2022/01/13 13:03:34;;;;;;;;;;;7.30;99.90;;;;;;5141168;27;19981;-69
2022/01/13 13:06:00;;;;;;;;;;;7.30;99.90;;;;;;5177836;27;19978;-69
2022/01/13 13:08:27;;;;;;;;;;;7.30;99.90;;;;;;5141692;27;19922;-74
2022/01/13 13:10:55;;;;;;;;;;;7.40;99.90;;;;;;5156606;27;19923;-70
2022/01/13 13:13:20;;;;;;;;;;;7.40;99.90;;;;;;5155529;27;20309;-70
2022/01/13 13:15:50;;;;;;;;;;;7.40;99.90;;;;;;5158822;27;19933;-70
2022/01/13 13:18:18;;;;;;;;;;;7.50;99.90;;;;;;5177578;27;19949;-69
2022/01/13 13:20:44;;;;;;;;;;;7.50;99.90;;;;;;5156740;27;19923;-70
2022/01/13 13:23:10;;;;;;;;;;;7.50;99.90;;;;;;5172213;27;19927;-71
2022/01/13 13:25:43;;;;;;;;;;;7.50;99.90;;;;;;5158415;27;19930;-69
2022/01/13 13:28:19;;;;;;;;;;;7.50;99.90;;;;;;5177730;27;19930;-69
2022/01/13 13:30:46;;;;;;;;;;;7.60;99.90;;;;;;5136880;27;20299;-70
2022/01/13 13:33:11;;;;;;;;;;;7.60;99.90;;;;;;5139567;27;19930;-69
2022/01/13 13:35:37;;;;;;;;;;;7.60;99.90;;;;;;5144520;27;20298;-70
2022/01/13 13:38:03;;;;;;;;;;;7.60;99.90;;;;;;5177225;27;19930;-69
2022/01/13 13:40:29;;;;;;;;;;;7.60;99.90;;;;;;5158667;27;19923;-70
2022/01/13 13:43:01;;;;;;;;;;;7.70;99.90;;;;;;5120881;27;19938;-70
2022/01/13 13:45:27;;;;;;;;;;;7.70;99.90;;;;;;5137845;27;19962;-71
2022/01/13 13:47:54;;;;;;;;;;;7.70;99.90;;;;;;5104296;27;19982;-70
2022/01/13 13:50:19;;;;;;;;;;;7.70;99.90;;;;;;5137534;27;19927;-69
2022/01/13 13:52:46;;;;;;;;;;;7.70;99.90;;;;;;5137465;27;19968;-70
2022/01/13 13:55:11;;;;;;;;;;;7.80;99.90;;;;;;5139077;27;19935;-70
2022/01/13 13:57:39;;;;;;;;;;;7.70;99.90;;;;;;5150538;27;20147;-69
2022/01/13 14:00:15;;;;;;;;;;;7.70;99.90;;;;;;5158137;27;19923;-69
2022/01/13 14:02:48;;;;;;;;;;;7.60;99.90;;;;;;5165336;27;19975;-69
2022/01/13 14:05:14;;;;;;;;;;;7.60;99.90;;;;;;5169435;27;19970;-68
2022/01/13 14:07:41;;;;;;;;;;;7.60;99.90;;;;;;5140169;27;19977;-69
2022/01/13 14:10:07;;;;;;;;;;;7.60;99.90;;;;;;5163105;27;20341;-70
2022/01/13 14:12:40;;;;;;;;;;;7.60;99.90;;;;;;5136896;27;19972;-68
2022/01/13 14:15:33;;;;;;;;;;;7.60;99.90;;;;;;5137509;27;19923;-69
2022/01/13 14:18:11;;;;;;;;;;;7.60;99.90;;;;;;5115056;27;19927;-69
2022/01/13 14:20:40;;;;;;;;;;;7.60;99.90;;;;;;5119382;27;19927;-70
2022/01/13 14:23:07;;;;;;;;;;;7.60;99.90;;;;;;5147046;27;19927;-69
2022/01/13 14:25:34;;;;;;;;;;;7.60;99.90;;;;;;5153883;27;19923;-69
2022/01/13 14:28:02;;;;;;;;;;;7.60;99.90;;;;;;5145931;27;19948;-69
2022/01/13 14:30:29;;;;;;;;;;;7.60;99.90;;;;;;5120024;27;20256;-68
2022/01/13 14:33:13;;;;;;;;;;;7.60;99.90;;;;;;5136167;27;19931;-70
2022/01/13 14:35:39;;;;;;;;;;;7.60;99.90;;;;;;5120435;27;19949;-70
2022/01/13 14:38:12;;;;;;;;;;;7.60;99.90;;;;;;5136720;27;20017;-70
2022/01/13 14:40:44;;;;;;;;;;;7.60;99.90;;;;;;5136674;27;19974;-70
2022/01/13 14:43:18;;;;;;;;;;;7.60;99.90;;;;;;5136722;27;19966;-69
2022/01/13 14:45:44;;;;;;;;;;;7.60;99.90;;;;;;5153480;27;20391;-69
2022/01/13 14:48:10;;;;;;;;;;;7.60;99.90;;;;;;5170495;27;19927;-68
2022/01/13 14:50:36;;;;;;;;;;;7.60;99.90;;;;;;5175338;27;19933;-69
2022/01/13 14:53:02;;;;;;;;;;;7.60;99.90;;;;;;5170985;27;20398;-69
2022/01/13 14:55:28;;;;;;;;;;;7.60;99.90;;;;;;5154897;27;19923;-70
2022/01/13 14:57:55;;;;;;;;;;;7.60;99.90;;;;;;5104221;27;19931;-70
2022/01/13 15:00:21;;;;;;;;;;;7.60;99.90;;;;;;5137557;27;19934;-70
2022/01/13 15:02:48;;;;;;;;;;;7.60;99.90;;;;;;5174961;27;19923;-70
2022/01/13 15:05:14;;;;;;;;;;;7.60;99.90;;;;;;5135567;27;19923;-72